Time;durP1;ratioP1;P1;durP2;ratioP2;P2;SDS_P1;SDS_P2;PMS_P1;PMS_P2;Temp;Humidity;BMP_temperature;BMP_pressure;BME280_temperature;BME280_humidity;BME280_pressure;Samples;Min_cycle;Max_cycle;Signal;HPM_P1;HPM_P2
2024/04/05 00:01:20;;;;;;;;;;;10.70;88.80;;;;;;5097067;28;20586;-61
2024/04/05 00:03:52;;;;;;;;;;;10.70;88.90;;;;;;5095630;28;19928;-61
2024/04/05 00:06:25;;;;;;;;;;;10.70;89.00;;;;;;5091938;28;19929;-62
2024/04/05 00:08:57;;;;;;;;;;;10.70;89.00;;;;;;5094636;28;19938;-62
2024/04/05 00:11:37;;;;;;;;;;;10.80;89.10;;;;;;5094296;28;20398;-62
2024/04/05 00:14:10;;;;;;;;;;;10.80;89.20;;;;;;5092753;28;19928;-61
2024/04/05 00:16:44;;;;;;;;;;;10.80;89.30;;;;;;5096499;28;19928;-63
2024/04/05 00:19:16;;;;;;;;;;;10.80;89.30;;;;;;5093954;28;19928;-62
2024/04/05 00:21:49;;;;;;;;;;;10.80;89.40;;;;;;5096540;28;20405;-60
2024/04/05 00:24:21;;;;;;;;;;;10.80;89.50;;;;;;5096918;28;20369;-58
2024/04/05 00:26:54;;;;;;;;;;;10.80;89.50;;;;;;5095460;28;19931;-58
2024/04/05 00:29:28;;;;;;;;;;;10.80;89.60;;;;;;5100514;28;20009;-59
2024/04/05 00:32:01;;;;;;;;;;;10.90;89.60;;;;;;5099855;28;20035;-59
2024/04/05 00:34:34;;;;;;;;;;;10.90;89.50;;;;;;5100620;27;19932;-59
2024/04/05 00:37:06;;;;;;;;;;;10.90;89.60;;;;;;5099968;28;20002;-58
2024/04/05 00:39:39;;;;;;;;;;;10.80;89.70;;;;;;5100247;28;19924;-58
2024/04/05 00:42:12;;;;;;;;;;;10.80;89.80;;;;;;5099512;28;19924;-58
2024/04/05 00:44:47;;;;;;;;;;;10.90;89.80;;;;;;5093394;28;19931;-59
2024/04/05 00:47:19;;;;;;;;;;;10.90;89.70;;;;;;5095248;28;19928;-57
2024/04/05 00:49:52;;;;;;;;;;;10.90;89.70;;;;;;5093228;28;20018;-58
2024/04/05 00:52:24;;;;;;;;;;;10.90;89.80;;;;;;5089853;28;19924;-58
2024/04/05 00:54:57;;;;;;;;;;;10.80;89.80;;;;;;5090607;28;20401;-58
2024/04/05 00:57:29;;;;;;;;;;;10.90;89.90;;;;;;5093166;28;19932;-58
2024/04/05 01:00:04;;;;;;;;;;;10.90;89.80;;;;;;5095682;28;19935;-58
2024/04/05 01:02:37;;;;;;;;;;;10.90;89.80;;;;;;5091446;28;19932;-58
2024/04/05 01:05:17;;;;;;;;;;;10.90;89.90;;;;;;5099145;28;19923;-57
2024/04/05 01:07:51;;;;;;;;;;;10.90;89.80;;;;;;5094365;28;19928;-58
2024/04/05 01:10:18;;;;;;;;;;;10.90;89.80;;;;;;5091471;28;19927;-60
2024/04/05 01:12:59;;;;;;;;;;;10.90;89.90;;;;;;5092937;28;19951;-59
2024/04/05 01:15:34;;;;;;;;;;;10.90;89.90;;;;;;5087230;28;19924;-59
2024/04/05 01:18:07;;;;;;;;;;;10.90;90.00;;;;;;5098477;28;19987;-58
2024/04/05 01:20:42;;;;;;;;;;;10.90;90.00;;;;;;5098611;28;19963;-58
2024/04/05 01:23:16;;;;;;;;;;;10.90;90.00;;;;;;5093209;28;19989;-57
2024/04/05 01:25:53;;;;;;;;;;;10.90;90.10;;;;;;5087466;28;19960;-59
2024/04/05 01:28:25;;;;;;;;;;;10.90;90.20;;;;;;5094416;28;19924;-58
2024/04/05 01:30:58;;;;;;;;;;;10.90;90.20;;;;;;5096340;28;19928;-58
2024/04/05 01:33:30;;;;;;;;;;;10.90;90.10;;;;;;5097095;28;19930;-58
2024/04/05 01:36:03;;;;;;;;;;;10.90;90.20;;;;;;5089817;28;19928;-63
2024/04/05 01:38:35;;;;;;;;;;;10.90;90.20;;;;;;5096652;28;19934;-63
2024/04/05 01:41:10;;;;;;;;;;;10.90;90.20;;;;;;5096787;28;19977;-63
2024/04/05 01:43:42;;;;;;;;;;;10.90;90.30;;;;;;5089874;28;20456;-62
2024/04/05 01:46:15;;;;;;;;;;;10.90;90.30;;;;;;5087459;28;19932;-63
2024/04/05 01:48:47;;;;;;;;;;;10.90;90.30;;;;;;5092590;28;19935;-63
2024/04/05 01:51:28;;;;;;;;;;;10.90;90.30;;;;;;5095040;28;19954;-63
2024/04/05 01:54:00;;;;;;;;;;;10.90;90.30;;;;;;5095595;28;19927;-63
2024/04/05 01:56:35;;;;;;;;;;;11.00;90.30;;;;;;5084469;28;19955;-63
2024/04/05 01:59:08;;;;;;;;;;;11.00;90.30;;;;;;5087770;28;19930;-62
2024/04/05 02:01:47;;;;;;;;;;;10.90;90.30;;;;;;5079123;28;19939;-64
2024/04/05 02:04:20;;;;;;;;;;;11.00;90.40;;;;;;5081908;28;20419;-64
2024/04/05 02:06:52;;;;;;;;;;;11.00;90.30;;;;;;5089425;28;19928;-64
2024/04/05 02:09:25;;;;;;;;;;;11.00;90.30;;;;;;5088325;28;19934;-64
2024/04/05 02:11:59;;;;;;;;;;;10.90;90.40;;;;;;5097683;28;19924;-63
2024/04/05 02:14:40;;;;;;;;;;;11.00;90.40;;;;;;5096877;28;19946;-63
2024/04/05 02:17:12;;;;;;;;;;;11.00;90.40;;;;;;5097358;28;19928;-64
2024/04/05 02:19:46;;;;;;;;;;;11.00;90.40;;;;;;5097780;28;19927;-63
2024/04/05 02:22:47;;;;;;;;;;;11.00;90.40;;;;;;5093624;28;19924;-64
2024/04/05 02:25:27;;;;;;;;;;;11.00;90.40;;;;;;5084325;28;19927;-63
2024/04/05 02:28:01;;;;;;;;;;;11.00;90.40;;;;;;5080812;28;19940;-65
2024/04/05 02:30:38;;;;;;;;;;;11.00;90.40;;;;;;5084165;28;20409;-63
2024/04/05 02:33:12;;;;;;;;;;;11.00;90.50;;;;;;5086582;28;19924;-63
2024/04/05 02:35:46;;;;;;;;;;;11.00;90.40;;;;;;5086482;28;19942;-63
2024/04/05 02:38:12;;;;;;;;;;;11.00;90.50;;;;;;5084641;28;22638;-64
2024/04/05 02:40:52;;;;;;;;;;;11.00;90.50;;;;;;5091451;28;20059;-62
2024/04/05 02:43:26;;;;;;;;;;;11.00;90.50;;;;;;5089101;28;19949;-62
2024/04/05 02:45:59;;;;;;;;;;;11.00;90.50;;;;;;5087474;28;19928;-61
2024/04/05 02:48:58;;;;;;;;;;;11.00;90.40;;;;;;5085810;28;19943;-61
2024/04/05 02:51:30;;;;;;;;;;;11.00;90.50;;;;;;5084049;28;19963;-61
2024/04/05 02:54:03;;;;;;;;;;;11.00;90.50;;;;;;5085463;28;20772;-61
2024/04/05 02:56:35;;;;;;;;;;;10.90;90.40;;;;;;5087983;28;19950;-61
2024/04/05 02:59:10;;;;;;;;;;;11.00;90.50;;;;;;5087900;28;19955;-60
2024/04/05 03:01:49;;;;;;;;;;;11.00;90.40;;;;;;5082762;28;19932;-60
2024/04/05 03:04:22;;;;;;;;;;;11.00;90.50;;;;;;5091833;28;20032;-59
2024/04/05 03:06:54;;;;;;;;;;;11.00;90.50;;;;;;5096572;28;20437;-61
2024/04/05 03:09:21;;;;;;;;;;;11.00;90.50;;;;;;5090247;28;19924;-60
2024/04/05 03:11:53;;;;;;;;;;;11.00;90.50;;;;;;5089213;28;20505;-61
2024/04/05 03:14:34;;;;;;;;;;;11.00;90.60;;;;;;5086585;28;19950;-59
2024/04/05 03:17:07;;;;;;;;;;;11.00;90.60;;;;;;5087088;28;19934;-61
2024/04/05 03:19:40;;;;;;;;;;;11.00;90.60;;;;;;5083155;28;19967;-61
2024/04/05 03:22:12;;;;;;;;;;;11.00;90.60;;;;;;5092390;28;19932;-61
2024/04/05 03:24:39;;;;;;;;;;;11.00;90.60;;;;;;5088466;28;19941;-61
2024/04/05 03:27:11;;;;;;;;;;;11.00;90.60;;;;;;5092380;28;19924;-61
2024/04/05 03:29:46;;;;;;;;;;;11.00;90.60;;;;;;5090592;28;21477;-60
2024/04/05 03:32:18;;;;;;;;;;;11.00;90.60;;;;;;5082856;28;19990;-60
2024/04/05 03:34:51;;;;;;;;;;;11.00;90.60;;;;;;5085736;28;19924;-61
2024/04/05 03:37:24;;;;;;;;;;;11.00;90.50;;;;;;5084909;28;19969;-59
2024/04/05 03:39:57;;;;;;;;;;;11.00;90.50;;;;;;5086940;28;19931;-61
2024/04/05 03:42:30;;;;;;;;;;;11.00;90.40;;;;;;5090871;28;19930;-61
2024/04/05 03:44:57;;;;;;;;;;;10.90;90.40;;;;;;5088105;28;19967;-61
2024/04/05 03:47:30;;;;;;;;;;;11.00;90.50;;;;;;5085373;28;20011;-61
2024/04/05 03:50:03;;;;;;;;;;;10.90;90.50;;;;;;5083362;28;19940;-61
2024/04/05 03:52:35;;;;;;;;;;;11.00;90.60;;;;;;5088488;28;19932;-59
2024/04/05 03:55:07;;;;;;;;;;;11.00;90.60;;;;;;5094800;28;19924;-62
2024/04/05 03:57:42;;;;;;;;;;;11.00;90.60;;;;;;5087374;28;19928;-62
2024/04/05 04:00:16;;;;;;;;;;;11.00;90.60;;;;;;5087809;28;19928;-60
2024/04/05 04:02:56;;;;;;;;;;;11.00;90.60;;;;;;5098239;28;20383;-61
2024/04/05 04:05:29;;;;;;;;;;;11.00;90.60;;;;;;5089857;28;20394;-62
2024/04/05 04:08:02;;;;;;;;;;;11.00;90.60;;;;;;5098856;28;19930;-63
2024/04/05 04:10:42;;;;;;;;;;;11.00;90.60;;;;;;5099801;28;19934;-63
2024/04/05 04:13:15;;;;;;;;;;;11.00;90.60;;;;;;5094431;28;20405;-62
2024/04/05 04:15:50;;;;;;;;;;;11.00;90.70;;;;;;5088252;28;19932;-60
2024/04/05 04:18:23;;;;;;;;;;;11.00;90.80;;;;;;5083573;28;19931;-62
2024/04/05 04:20:56;;;;;;;;;;;11.00;90.80;;;;;;5090308;28;19931;-62
2024/04/05 04:23:30;;;;;;;;;;;11.00;90.90;;;;;;5100307;28;19924;-62
2024/04/05 04:26:03;;;;;;;;;;;11.10;90.80;;;;;;5100260;28;19946;-61
2024/04/05 04:28:36;;;;;;;;;;;11.10;90.80;;;;;;5101659;28;20459;-62
2024/04/05 04:31:17;;;;;;;;;;;11.10;90.70;;;;;;5097446;28;19931;-62
2024/04/05 04:33:51;;;;;;;;;;;11.10;90.50;;;;;;5088178;28;19948;-60
2024/04/05 04:36:23;;;;;;;;;;;11.10;90.50;;;;;;5080618;28;19923;-62
2024/04/05 04:38:56;;;;;;;;;;;11.10;90.60;;;;;;5097615;28;19932;-63
2024/04/05 04:41:29;;;;;;;;;;;11.10;90.60;;;;;;5099041;28;19924;-62
2024/04/05 04:44:03;;;;;;;;;;;11.20;90.60;;;;;;5099075;28;19924;-64
2024/04/05 04:46:37;;;;;;;;;;;11.20;90.60;;;;;;5095905;28;20414;-62
2024/04/05 04:49:10;;;;;;;;;;;11.20;90.70;;;;;;5098216;28;20324;-62
2024/04/05 04:51:42;;;;;;;;;;;11.20;90.70;;;;;;5097225;28;19936;-61
2024/04/05 04:54:16;;;;;;;;;;;11.20;90.70;;;;;;5099548;28;19927;-63
2024/04/05 04:56:48;;;;;;;;;;;11.20;90.50;;;;;;5092174;28;19938;-62
2024/04/05 04:59:28;;;;;;;;;;;11.20;90.30;;;;;;5095011;28;19927;-61
2024/04/05 05:02:08;;;;;;;;;;;11.20;90.10;;;;;;5083808;28;20041;-62
2024/04/05 05:04:42;;;;;;;;;;;11.20;90.60;;;;;;5088756;28;19934;-59
2024/04/05 05:07:14;;;;;;;;;;;11.20;90.30;;;;;;5091638;28;20027;-57
2024/04/05 05:09:47;;;;;;;;;;;11.30;90.50;;;;;;5081042;28;19924;-58
2024/04/05 05:12:19;;;;;;;;;;;11.20;90.80;;;;;;5084585;28;20011;-58
2024/04/05 05:14:52;;;;;;;;;;;11.30;90.90;;;;;;5074604;28;19934;-59
2024/04/05 05:17:26;;;;;;;;;;;11.30;91.00;;;;;;5083018;28;19927;-58
2024/04/05 05:20:00;;;;;;;;;;;11.30;90.70;;;;;;5095886;28;19935;-58
2024/04/05 05:22:39;;;;;;;;;;;11.30;90.40;;;;;;5090584;28;19967;-58
2024/04/05 05:25:12;;;;;;;;;;;11.30;90.50;;;;;;5089353;28;20301;-58
2024/04/05 05:27:45;;;;;;;;;;;11.30;90.70;;;;;;5096634;28;19928;-59
2024/04/05 05:30:18;;;;;;;;;;;11.30;90.70;;;;;;5090980;28;19928;-60
2024/04/05 05:32:54;;;;;;;;;;;11.30;91.00;;;;;;5071276;28;19928;-58
2024/04/05 05:35:27;;;;;;;;;;;11.40;91.20;;;;;;5090621;28;20272;-59
2024/04/05 05:38:00;;;;;;;;;;;11.40;91.10;;;;;;5093258;28;19963;-59
2024/04/05 05:40:33;;;;;;;;;;;11.40;91.10;;;;;;5091092;28;20489;-58
2024/04/05 05:43:05;;;;;;;;;;;11.40;91.10;;;;;;5094001;28;19935;-58
2024/04/05 05:45:45;;;;;;;;;;;11.40;91.20;;;;;;5094052;28;19939;-59
2024/04/05 05:48:19;;;;;;;;;;;11.50;91.20;;;;;;5090075;28;19939;-59
2024/04/05 05:50:52;;;;;;;;;;;11.50;91.30;;;;;;5098579;28;20298;-58
2024/04/05 05:53:26;;;;;;;;;;;11.50;91.40;;;;;;5098866;28;19923;-59
2024/04/05 05:55:58;;;;;;;;;;;11.60;91.40;;;;;;5092998;28;19969;-58
2024/04/05 05:58:30;;;;;;;;;;;11.60;91.40;;;;;;5099858;28;19928;-59
2024/04/05 06:01:06;;;;;;;;;;;11.70;91.40;;;;;;5083223;28;21423;-59
2024/04/05 06:03:41;;;;;;;;;;;11.70;91.40;;;;;;5092291;28;19924;-58
2024/04/05 06:06:14;;;;;;;;;;;11.80;91.40;;;;;;5092980;28;19927;-59
2024/04/05 06:08:47;;;;;;;;;;;11.80;91.40;;;;;;5091003;28;20016;-59
2024/04/05 06:11:20;;;;;;;;;;;12.00;91.30;;;;;;5090696;28;19963;-58
2024/04/05 06:13:52;;;;;;;;;;;12.00;91.30;;;;;;5089826;28;19935;-61
2024/04/05 06:16:25;;;;;;;;;;;12.10;91.30;;;;;;5086044;28;19939;-67
2024/04/05 06:18:59;;;;;;;;;;;12.10;91.20;;;;;;5092389;28;19923;-67
2024/04/05 06:21:39;;;;;;;;;;;12.20;91.20;;;;;;5090271;28;20386;-67
2024/04/05 06:24:11;;;;;;;;;;;12.20;91.50;;;;;;5077930;28;19930;-68
2024/04/05 06:26:45;;;;;;;;;;;12.20;91.50;;;;;;5092111;28;19928;-68
2024/04/05 06:29:17;;;;;;;;;;;12.20;91.40;;;;;;5089125;28;19923;-68
2024/04/05 06:31:50;;;;;;;;;;;12.20;91.30;;;;;;5088631;28;20045;-67
2024/04/05 06:34:24;;;;;;;;;;;12.20;91.40;;;;;;5092602;28;19928;-65
2024/04/05 06:36:57;;;;;;;;;;;12.20;91.40;;;;;;5094673;28;19946;-68
2024/04/05 06:39:29;;;;;;;;;;;12.20;91.40;;;;;;5091573;28;19956;-67
2024/04/05 06:41:56;;;;;;;;;;;12.20;91.50;;;;;;5092470;28;20008;-66
2024/04/05 06:44:34;;;;;;;;;;;12.20;91.50;;;;;;5098998;28;20424;-67
2024/04/05 06:47:08;;;;;;;;;;;12.20;91.40;;;;;;5093547;28;19924;-68
2024/04/05 06:49:37;;;;;;;;;;;12.30;91.50;;;;;;5086931;28;19932;-68
2024/04/05 06:52:11;;;;;;;;;;;12.40;91.70;;;;;;5087680;28;19923;-67
2024/04/05 06:54:50;;;;;;;;;;;12.60;92.00;;;;;;5088642;28;20536;-69
2024/04/05 06:57:23;;;;;;;;;;;12.90;92.00;;;;;;5091210;28;20008;-68
2024/04/05 06:59:55;;;;;;;;;;;13.10;91.70;;;;;;5086006;28;20509;-68
2024/04/05 07:02:28;;;;;;;;;;;13.30;91.60;;;;;;5099106;28;19927;-68
2024/04/05 07:05:02;;;;;;;;;;;13.50;91.30;;;;;;5099561;28;19939;-68
2024/04/05 07:07:37;;;;;;;;;;;13.60;91.30;;;;;;5090684;28;19924;-67
2024/04/05 07:10:09;;;;;;;;;;;13.90;90.80;;;;;;5092282;28;19924;-67
2024/04/05 07:12:48;;;;;;;;;;;14.10;90.50;;;;;;5088472;28;19930;-67
2024/04/05 07:15:20;;;;;;;;;;;14.20;90.20;;;;;;5086950;28;19928;-68
2024/04/05 07:17:54;;;;;;;;;;;14.30;90.10;;;;;;5090249;28;19928;-67
2024/04/05 07:20:28;;;;;;;;;;;14.30;89.80;;;;;;5094969;28;19923;-68
2024/04/05 07:23:01;;;;;;;;;;;14.40;89.50;;;;;;5092053;28;19931;-68
2024/04/05 07:25:40;;;;;;;;;;;14.40;89.20;;;;;;5086932;28;20010;-63
2024/04/05 07:28:22;;;;;;;;;;;14.40;89.00;;;;;;5088401;28;20363;-63
2024/04/05 07:30:53;;;;;;;;;;;14.40;89.00;;;;;;5089018;28;19940;-63
2024/04/05 07:33:26;;;;;;;;;;;14.50;89.00;;;;;;5088231;28;19931;-62
2024/04/05 07:36:00;;;;;;;;;;;14.50;88.80;;;;;;5094220;28;20908;-62
2024/04/05 07:38:26;;;;;;;;;;;14.60;88.60;;;;;;5091215;28;19935;-63
2024/04/05 07:41:02;;;;;;;;;;;14.70;88.40;;;;;;5091252;28;19932;-63
2024/04/05 07:43:35;;;;;;;;;;;14.70;88.20;;;;;;5089488;28;19932;-63
2024/04/05 07:46:07;;;;;;;;;;;14.80;88.00;;;;;;5088988;28;19932;-64
2024/04/05 07:48:41;;;;;;;;;;;14.80;87.90;;;;;;5088736;28;19932;-61
2024/04/05 07:51:14;;;;;;;;;;;14.90;88.00;;;;;;5091500;28;19932;-65
2024/04/05 07:53:41;;;;;;;;;;;14.90;87.90;;;;;;5088010;28;20414;-61
2024/04/05 07:56:13;;;;;;;;;;;14.90;87.60;;;;;;5090674;28;19923;-62
2024/04/05 07:58:46;;;;;;;;;;;15.00;87.80;;;;;;5088972;28;19930;-63
2024/04/05 08:01:18;;;;;;;;;;;15.00;87.90;;;;;;5085992;28;19924;-62
2024/04/05 08:03:51;;;;;;;;;;;15.10;87.60;;;;;;5088564;28;20379;-61
2024/04/05 08:06:31;;;;;;;;;;;15.20;87.50;;;;;;5091168;28;20377;-62
2024/04/05 08:09:04;;;;;;;;;;;15.20;87.20;;;;;;5097503;28;19970;-64
2024/04/05 08:11:45;;;;;;;;;;;15.30;86.80;;;;;;5091234;28;19960;-61
2024/04/05 08:14:17;;;;;;;;;;;15.50;86.40;;;;;;5086709;28;21912;-62
2024/04/05 08:16:49;;;;;;;;;;;15.60;85.70;;;;;;5087322;28;19930;-62
2024/04/05 08:19:22;;;;;;;;;;;15.70;85.60;;;;;;5091536;28;19935;-64
2024/04/05 08:21:56;;;;;;;;;;;15.80;85.50;;;;;;5090958;28;19924;-62
2024/04/05 08:24:29;;;;;;;;;;;15.90;85.00;;;;;;5092003;28;19933;-63
2024/04/05 08:27:02;;;;;;;;;;;15.90;85.10;;;;;;5091641;28;19924;-66
2024/04/05 08:29:37;;;;;;;;;;;16.00;85.10;;;;;;5091183;28;19924;-63
2024/04/05 08:32:09;;;;;;;;;;;16.00;85.00;;;;;;5091559;28;19939;-62
2024/04/05 08:34:43;;;;;;;;;;;16.00;84.80;;;;;;5083069;28;19935;-68
2024/04/05 08:37:17;;;;;;;;;;;16.00;84.70;;;;;;5085995;28;19934;-67
2024/04/05 08:39:50;;;;;;;;;;;15.90;84.70;;;;;;5092939;28;19931;-69
2024/04/05 08:42:23;;;;;;;;;;;15.90;84.70;;;;;;5085669;28;19932;-68
2024/04/05 08:44:57;;;;;;;;;;;15.90;84.70;;;;;;5090856;28;20404;-69
2024/04/05 08:47:31;;;;;;;;;;;15.90;84.80;;;;;;5087600;28;19928;-69
2024/04/05 08:50:08;;;;;;;;;;;15.90;84.60;;;;;;5096409;28;19934;-69
2024/04/05 08:52:41;;;;;;;;;;;15.80;84.50;;;;;;5092123;28;20282;-69
2024/04/05 08:55:16;;;;;;;;;;;15.80;84.60;;;;;;5095878;28;19935;-70
2024/04/05 08:57:55;;;;;;;;;;;15.70;84.70;;;;;;5098803;28;19959;-69
2024/04/05 09:00:29;;;;;;;;;;;15.70;84.50;;;;;;5093926;28;19943;-69
2024/04/05 09:03:02;;;;;;;;;;;15.70;84.70;;;;;;5092488;28;19924;-69
2024/04/05 09:05:36;;;;;;;;;;;15.70;84.70;;;;;;5092684;28;20569;-68
2024/04/05 09:08:09;;;;;;;;;;;15.70;84.70;;;;;;5087404;28;20021;-70
2024/04/05 09:10:53;;;;;;;;;;;15.80;84.70;;;;;;5087578;28;19927;-69
2024/04/05 09:13:26;;;;;;;;;;;15.90;84.60;;;;;;5091760;28;19998;-69
2024/04/05 09:16:00;;;;;;;;;;;16.00;84.30;;;;;;5093722;28;19968;-70
2024/04/05 09:18:33;;;;;;;;;;;16.10;83.90;;;;;;5095979;28;20516;-68
2024/04/05 09:21:11;;;;;;;;;;;16.30;83.90;;;;;;5092924;28;20397;-68
2024/04/05 09:23:46;;;;;;;;;;;16.40;83.40;;;;;;5088297;28;19993;-68
2024/04/05 09:26:21;;;;;;;;;;;16.60;83.30;;;;;;5096558;28;20005;-70
2024/04/05 09:29:00;;;;;;;;;;;16.80;82.70;;;;;;5093009;28;19931;-69
2024/04/05 09:31:33;;;;;;;;;;;16.90;82.30;;;;;;5073551;28;19928;-69
2024/04/05 09:34:06;;;;;;;;;;;17.00;82.30;;;;;;5094902;28;19932;-69
2024/04/05 09:36:40;;;;;;;;;;;17.10;81.80;;;;;;5089663;28;20003;-71
2024/04/05 09:39:13;;;;;;;;;;;17.10;81.10;;;;;;5092320;28;19924;-70
2024/04/05 09:41:47;;;;;;;;;;;17.30;80.80;;;;;;5092032;28;19927;-68
2024/04/05 09:44:19;;;;;;;;;;;17.50;80.30;;;;;;5090918;28;19931;-63
2024/04/05 09:46:55;;;;;;;;;;;17.70;79.90;;;;;;5089454;28;19974;-62
2024/04/05 09:49:34;;;;;;;;;;;18.00;79.10;;;;;;5095417;28;19971;-63
2024/04/05 09:52:16;;;;;;;;;;;18.20;78.40;;;;;;5094825;28;20378;-63
2024/04/05 09:54:53;;;;;;;;;;;18.30;78.00;;;;;;5092396;28;19931;-60
2024/04/05 09:57:28;;;;;;;;;;;18.30;78.10;;;;;;5088259;28;19955;-62
2024/04/05 10:00:09;;;;;;;;;;;18.40;77.40;;;;;;5095766;28;19963;-63
2024/04/05 10:02:46;;;;;;;;;;;18.50;76.90;;;;;;5089162;28;19963;-61
2024/04/05 10:05:25;;;;;;;;;;;18.60;76.90;;;;;;5092657;28;19981;-61
2024/04/05 10:08:09;;;;;;;;;;;18.60;76.80;;;;;;5096464;28;19973;-62
2024/04/05 10:10:42;;;;;;;;;;;18.70;75.60;;;;;;5087835;28;19930;-62
2024/04/05 10:13:16;;;;;;;;;;;18.70;75.40;;;;;;5089165;28;19938;-62
2024/04/05 10:15:53;;;;;;;;;;;18.80;74.90;;;;;;5091358;28;19928;-62
2024/04/05 10:18:27;;;;;;;;;;;18.90;74.90;;;;;;5085889;28;19924;-60
2024/04/05 10:21:00;;;;;;;;;;;19.10;74.70;;;;;;5086954;28;20477;-62
2024/04/05 10:23:34;;;;;;;;;;;19.20;74.30;;;;;;5085535;28;20383;-62
2024/04/05 10:26:11;;;;;;;;;;;19.20;74.20;;;;;;5080265;28;20362;-61
2024/04/05 10:28:44;;;;;;;;;;;19.40;73.20;;;;;;5090939;28;20267;-60
2024/04/05 10:31:15;;;;;;;;;;;19.60;73.70;;;;;;5093481;28;19992;-62
2024/04/05 10:33:48;;;;;;;;;;;19.70;73.20;;;;;;5087837;28;20389;-61
2024/04/05 10:36:21;;;;;;;;;;;19.70;72.90;;;;;;5087150;28;19929;-60
2024/04/05 10:38:55;;;;;;;;;;;19.90;71.90;;;;;;5094117;28;19946;-61
2024/04/05 10:41:29;;;;;;;;;;;20.00;71.90;;;;;;5090558;28;19939;-61
2024/04/05 10:44:04;;;;;;;;;;;20.10;71.00;;;;;;5089010;28;20007;-62
2024/04/05 10:46:36;;;;;;;;;;;20.20;71.00;;;;;;5089174;28;19932;-61
2024/04/05 10:49:11;;;;;;;;;;;20.20;71.00;;;;;;5092157;28;20386;-61
2024/04/05 10:51:57;;;;;;;;;;;20.30;69.80;;;;;;5090242;28;19932;-63
2024/04/05 10:54:30;;;;;;;;;;;20.30;70.30;;;;;;5084116;28;20379;-61
2024/04/05 10:57:03;;;;;;;;;;;20.20;70.10;;;;;;5092844;28;20384;-64
2024/04/05 10:59:37;;;;;;;;;;;20.20;70.80;;;;;;5093552;28;19928;-63
2024/04/05 11:02:09;;;;;;;;;;;20.20;69.50;;;;;;5086732;28;20375;-62
2024/04/05 11:04:41;;;;;;;;;;;20.20;68.20;;;;;;5083464;28;20026;-61
2024/04/05 11:07:16;;;;;;;;;;;20.20;67.70;;;;;;5094228;28;19924;-62
2024/04/05 11:09:49;;;;;;;;;;;20.10;67.80;;;;;;5085975;28;20416;-61
2024/04/05 11:12:24;;;;;;;;;;;20.10;69.30;;;;;;5083944;28;20007;-61
2024/04/05 11:15:03;;;;;;;;;;;20.10;68.10;;;;;;5098193;28;20687;-62
2024/04/05 11:17:36;;;;;;;;;;;20.10;67.80;;;;;;5091135;28;19932;-61
2024/04/05 11:20:09;;;;;;;;;;;20.20;67.20;;;;;;5088558;28;19924;-63
2024/04/05 11:22:42;;;;;;;;;;;20.20;67.20;;;;;;5096431;28;20297;-61
2024/04/05 11:25:20;;;;;;;;;;;20.30;65.70;;;;;;5087218;28;19982;-61
2024/04/05 11:27:54;;;;;;;;;;;20.30;65.20;;;;;;5095013;28;19930;-63
2024/04/05 11:30:28;;;;;;;;;;;20.30;65.40;;;;;;5082825;28;20006;-62
2024/04/05 11:33:00;;;;;;;;;;;20.30;65.60;;;;;;5092382;28;19931;-63
2024/04/05 11:35:33;;;;;;;;;;;20.30;65.10;;;;;;5081263;28;19935;-62
2024/04/05 11:38:05;;;;;;;;;;;20.20;65.20;;;;;;5089159;28;19924;-62
2024/04/05 11:40:38;;;;;;;;;;;20.20;65.60;;;;;;5086188;28;19928;-61
2024/04/05 11:43:12;;;;;;;;;;;20.10;65.10;;;;;;5086412;28;20447;-63
2024/04/05 11:45:44;;;;;;;;;;;20.10;64.70;;;;;;5091251;28;20330;-61
2024/04/05 11:48:17;;;;;;;;;;;20.10;64.40;;;;;;5094485;28;19928;-61
2024/04/05 11:50:50;;;;;;;;;;;20.10;64.60;;;;;;5095218;28;19985;-62
2024/04/05 11:53:28;;;;;;;;;;;20.10;64.40;;;;;;5088295;28;19924;-62
2024/04/05 11:56:03;;;;;;;;;;;20.20;63.30;;;;;;5088686;28;19931;-62
2024/04/05 11:58:37;;;;;;;;;;;20.10;63.90;;;;;;5085148;28;20579;-62
2024/04/05 12:01:12;;;;;;;;;;;20.10;63.40;;;;;;5091381;28;20759;-61
2024/04/05 12:03:45;;;;;;;;;;;20.10;63.00;;;;;;5089042;28;19931;-62
2024/04/05 12:06:18;;;;;;;;;;;20.20;63.20;;;;;;5089481;28;19940;-70
2024/04/05 12:08:50;;;;;;;;;;;20.20;63.50;;;;;;5091177;28;19927;-68
2024/04/05 12:11:23;;;;;;;;;;;20.10;64.10;;;;;;5087983;28;19930;-69
2024/04/05 12:13:56;;;;;;;;;;;20.00;64.70;;;;;;5088964;28;19925;-69
2024/04/05 12:16:30;;;;;;;;;;;20.10;66.30;;;;;;5090230;28;19927;-70
2024/04/05 12:19:02;;;;;;;;;;;20.00;65.20;;;;;;5087007;28;19928;-70
2024/04/05 12:21:35;;;;;;;;;;;19.90;66.70;;;;;;5091048;28;19939;-70
2024/04/05 12:24:07;;;;;;;;;;;19.80;67.60;;;;;;5094131;28;20005;-69
2024/04/05 12:26:40;;;;;;;;;;;19.70;65.80;;;;;;5098208;28;20018;-70
2024/04/05 12:29:20;;;;;;;;;;;19.70;66.50;;;;;;5092351;28;19928;-69
2024/04/05 12:31:54;;;;;;;;;;;19.70;65.80;;;;;;5096085;28;19928;-70
2024/04/05 12:34:25;;;;;;;;;;;19.70;66.60;;;;;;5099084;28;20417;-68
2024/04/05 12:37:08;;;;;;;;;;;19.80;67.00;;;;;;5095001;28;19924;-70
2024/04/05 12:39:45;;;;;;;;;;;19.80;67.20;;;;;;5088977;28;19932;-69
2024/04/05 12:42:19;;;;;;;;;;;20.00;65.00;;;;;;5093814;28;19924;-70
2024/04/05 12:44:52;;;;;;;;;;;20.10;66.10;;;;;;5088899;28;19932;-69
2024/04/05 12:47:26;;;;;;;;;;;20.10;65.10;;;;;;5090874;28;19981;-69
2024/04/05 12:49:58;;;;;;;;;;;20.10;65.50;;;;;;5093722;28;19924;-70
2024/04/05 12:52:31;;;;;;;;;;;20.10;65.70;;;;;;5090060;28;20402;-69
2024/04/05 12:55:18;;;;;;;;;;;20.10;65.60;;;;;;5097940;28;20396;-69
2024/04/05 12:57:58;;;;;;;;;;;20.10;64.60;;;;;;5092128;28;19973;-69
2024/04/05 13:00:33;;;;;;;;;;;20.10;64.40;;;;;;5094562;28;19928;-70
2024/04/05 13:03:06;;;;;;;;;;;20.00;64.70;;;;;;5100258;28;19928;-69
2024/04/05 13:05:38;;;;;;;;;;;19.90;64.60;;;;;;5097844;28;19928;-69
2024/04/05 13:08:17;;;;;;;;;;;19.90;64.50;;;;;;5089415;28;19939;-68
2024/04/05 13:10:54;;;;;;;;;;;19.80;65.10;;;;;;5093006;28;19943;-69
2024/04/05 13:13:28;;;;;;;;;;;19.80;65.20;;;;;;5092915;28;19928;-69
2024/04/05 13:16:01;;;;;;;;;;;19.70;64.40;;;;;;5088561;28;20033;-61
2024/04/05 13:18:35;;;;;;;;;;;19.70;65.00;;;;;;5096167;28;19928;-61
2024/04/05 13:21:14;;;;;;;;;;;19.70;65.20;;;;;;5097510;28;19936;-61
2024/04/05 13:23:48;;;;;;;;;;;19.80;65.60;;;;;;5087529;28;19928;-62
2024/04/05 13:26:21;;;;;;;;;;;19.80;66.70;;;;;;5089215;28;20375;-62
2024/04/05 13:28:55;;;;;;;;;;;19.70;66.60;;;;;;5092692;28;20260;-61
2024/04/05 13:31:30;;;;;;;;;;;19.80;67.90;;;;;;5090625;28;20419;-62
2024/04/05 13:34:06;;;;;;;;;;;19.70;67.40;;;;;;5097620;28;19956;-62
2024/04/05 13:36:39;;;;;;;;;;;19.70;66.80;;;;;;5100356;28;20431;-61
2024/04/05 13:39:09;;;;;;;;;;;19.60;66.60;;;;;;5098547;28;20014;-62
2024/04/05 13:41:48;;;;;;;;;;;19.60;66.60;;;;;;5085789;28;20375;-61
2024/04/05 13:44:23;;;;;;;;;;;19.50;67.80;;;;;;5090385;28;19930;-62
2024/04/05 13:46:56;;;;;;;;;;;19.40;67.60;;;;;;5089740;28;19924;-62
2024/04/05 13:49:30;;;;;;;;;;;19.40;68.00;;;;;;5094195;28;19932;-60
2024/04/05 13:52:02;;;;;;;;;;;19.30;68.20;;;;;;5100714;28;19928;-62
2024/04/05 13:54:36;;;;;;;;;;;19.30;68.40;;;;;;5097803;28;19935;-62
2024/04/05 13:57:08;;;;;;;;;;;19.30;68.20;;;;;;5092135;28;20383;-61
2024/04/05 13:59:41;;;;;;;;;;;19.20;68.10;;;;;;5092226;28;19930;-61
2024/04/05 14:02:14;;;;;;;;;;;19.20;69.00;;;;;;5099237;28;19936;-61
2024/04/05 14:04:48;;;;;;;;;;;19.30;69.50;;;;;;5097481;28;19935;-62
2024/04/05 14:07:27;;;;;;;;;;;19.30;69.20;;;;;;5095965;28;20039;-63
2024/04/05 14:10:01;;;;;;;;;;;19.30;70.60;;;;;;5098557;28;19928;-62
2024/04/05 14:12:34;;;;;;;;;;;19.20;69.90;;;;;;5096336;28;19938;-61
2024/04/05 14:15:07;;;;;;;;;;;19.20;69.40;;;;;;5094074;28;19931;-61
2024/04/05 14:17:41;;;;;;;;;;;19.20;69.00;;;;;;5099257;28;20290;-62
2024/04/05 14:20:15;;;;;;;;;;;19.20;69.20;;;;;;5097981;28;20808;-62
2024/04/05 14:22:47;;;;;;;;;;;19.10;70.00;;;;;;5096599;28;20042;-62
2024/04/05 14:25:20;;;;;;;;;;;19.20;69.50;;;;;;5095340;28;20054;-62
2024/04/05 14:27:52;;;;;;;;;;;19.20;69.30;;;;;;5087240;28;19931;-62
2024/04/05 14:30:28;;;;;;;;;;;19.40;68.90;;;;;;5085420;28;19928;-62
2024/04/05 14:33:01;;;;;;;;;;;19.50;68.30;;;;;;5081376;28;20007;-61
2024/04/05 14:35:34;;;;;;;;;;;19.60;68.10;;;;;;5080964;28;19981;-62
2024/04/05 14:38:06;;;;;;;;;;;19.60;67.50;;;;;;5080887;28;19935;-61
2024/04/05 14:40:39;;;;;;;;;;;19.60;67.00;;;;;;5079695;28;20670;-61
2024/04/05 14:43:11;;;;;;;;;;;19.60;65.90;;;;;;5085534;28;19928;-61
2024/04/05 14:45:52;;;;;;;;;;;19.70;65.80;;;;;;5083676;28;19924;-61
2024/04/05 14:48:27;;;;;;;;;;;19.80;65.10;;;;;;5079462;28;19932;-63
2024/04/05 14:51:02;;;;;;;;;;;19.80;65.20;;;;;;5085345;28;20024;-61
2024/04/05 14:53:35;;;;;;;;;;;19.80;64.90;;;;;;5088364;28;20394;-61
2024/04/05 14:56:10;;;;;;;;;;;19.80;65.10;;;;;;5074671;28;20021;-62